createdAt,value
2022-10-31T00:01:26.556Z,9.23
2022-10-31T00:06:26.035Z,9.27
2022-10-31T00:11:27.289Z,9.05
2022-10-31T00:16:29.425Z,8.94
2022-10-31T00:21:29.571Z,8.88
2022-10-31T00:26:28.867Z,8.84
2022-10-31T00:31:31.278Z,8.87
2022-10-31T00:36:30.352Z,8.94
2022-10-31T00:41:32.453Z,8.76
2022-10-31T00:46:31.547Z,8.66
2022-10-31T00:51:32.840Z,8.53
2022-10-31T00:56:34.952Z,8.48
2022-10-31T01:01:34.441Z,8.45
2022-10-31T01:06:33.665Z,8.36
2022-10-31T01:11:34.785Z,8.33
2022-10-31T01:16:36.155Z,8.39
2022-10-31T01:21:37.511Z,8.29
2022-10-31T01:26:38.644Z,8.37
2022-10-31T01:31:40.768Z,8.30
2022-10-31T01:36:40.062Z,8.30
2022-10-31T01:41:41.467Z,8.25
2022-10-31T01:46:42.555Z,8.08
2022-10-31T01:51:43.653Z,8.10
2022-10-31T01:56:44.952Z,7.96
2022-10-31T02:01:47.202Z,7.93
2022-10-31T02:06:47.423Z,7.94
2022-10-31T02:11:46.517Z,7.94
2022-10-31T02:16:47.615Z,7.92
2022-10-31T02:21:48.866Z,7.90
2022-10-31T02:26:50.271Z,7.75
2022-10-31T02:31:51.568Z,7.89
2022-10-31T02:36:52.679Z,7.82
2022-10-31T02:41:53.937Z,7.74
2022-10-31T02:46:55.046Z,7.74
2022-10-31T02:51:56.369Z,7.69
2022-10-31T02:56:57.684Z,7.62
2022-10-31T03:01:59.955Z,7.79
2022-10-31T03:06:59.392Z,7.89
2022-10-31T03:12:01.459Z,7.60
2022-10-31T03:17:01.756Z,7.59
2022-10-31T03:22:01.195Z,7.53
2022-10-31T03:27:03.307Z,7.55
2022-10-31T03:32:02.430Z,7.27
2022-10-31T03:37:04.557Z,7.20
2022-10-31T03:42:03.871Z,7.13
2022-10-31T03:47:05.983Z,7.23
2022-10-31T03:52:05.332Z,7.20
2022-10-31T03:57:06.655Z,7.31
2022-10-31T04:02:10.857Z,7.13
2022-10-31T04:07:08.134Z,6.89
2022-10-31T04:12:09.259Z,6.80
2022-10-31T04:17:10.417Z,6.91
2022-10-31T04:22:11.544Z,6.81
2022-10-31T04:27:12.806Z,6.81
2022-10-31T04:32:13.921Z,6.80
2022-10-31T04:37:16.041Z,6.87
2022-10-31T04:42:15.168Z,6.98
2022-10-31T04:47:16.285Z,6.97
2022-10-31T04:52:17.758Z,7.16
2022-10-31T04:57:19.150Z,7.12
2022-10-31T05:02:24.278Z,7.05
2022-10-31T05:07:22.373Z,7.12
2022-10-31T05:12:21.702Z,7.27
2022-10-31T05:17:22.792Z,7.22
2022-10-31T05:22:24.109Z,7.22
2022-10-31T05:27:25.284Z,7.15
2022-10-31T05:32:26.385Z,7.13
2022-10-31T05:37:27.806Z,7.05
2022-10-31T05:42:29.916Z,6.94
2022-10-31T05:47:30.054Z,6.80
2022-10-31T05:52:30.503Z,6.76
2022-10-31T05:57:29.766Z,6.77
2022-10-31T06:02:30.903Z,6.79
2022-10-31T06:07:32.241Z,6.80
2022-10-31T06:12:35.384Z,6.62
2022-10-31T06:17:34.596Z,6.76
2022-10-31T06:22:35.974Z,6.77
2022-10-31T06:27:37.210Z,6.72
2022-10-31T06:32:39.281Z,6.79
2022-10-31T06:37:38.601Z,6.97
2022-10-31T06:42:40.710Z,7.01
2022-10-31T06:47:56.855Z,7.17
2022-10-31T06:52:40.095Z,7.44
2022-10-31T06:57:41.151Z,7.41
2022-10-31T07:02:43.262Z,7.52
2022-10-31T07:07:42.366Z,7.49
2022-10-31T07:12:43.481Z,7.77
2022-10-31T07:17:44.598Z,7.90
2022-10-31T07:22:50.436Z,7.90
2022-10-31T07:27:46.788Z,8.02
2022-10-31T07:32:45.883Z,8.55
2022-10-31T07:37:47.998Z,8.63
2022-10-31T07:42:47.113Z,8.68
2022-10-31T07:47:48.208Z,8.45
2022-10-31T07:52:49.568Z,8.86
2022-10-31T07:57:50.655Z,9.16
2022-10-31T08:02:51.966Z,9.27
2022-10-31T08:07:53.193Z,9.43
2022-10-31T08:12:54.433Z,9.40
2022-10-31T08:17:55.536Z,9.28
2022-10-31T08:22:58.663Z,9.70
2022-10-31T08:27:58.279Z,9.73
2022-10-31T08:32:58.539Z,9.49
2022-10-31T08:37:58.352Z,9.23
2022-10-31T08:42:57.706Z,9.16
2022-10-31T08:48:00.103Z,9.46
2022-10-31T08:53:05.086Z,9.46
2022-10-31T08:58:01.666Z,9.70
2022-10-31T09:02:58.891Z,10.10
2022-10-31T09:08:01.370Z,9.93
2022-10-31T09:13:01.707Z,10.25
2022-10-31T09:18:01.169Z,10.66
2022-10-31T09:23:00.417Z,10.91
2022-10-31T09:28:02.941Z,11.35
2022-10-31T09:33:02.757Z,11.77
2022-10-31T09:38:02.381Z,12.01
2022-10-31T09:43:00.639Z,12.42
2022-10-31T09:48:02.473Z,12.56
2022-10-31T09:53:01.972Z,13.03
2022-10-31T09:58:01.437Z,12.48
2022-10-31T10:03:02.907Z,12.20
2022-10-31T10:08:02.418Z,12.42
2022-10-31T10:13:06.541Z,12.15
2022-10-31T10:18:03.540Z,12.01
2022-10-31T10:23:04.883Z,12.13
2022-10-31T10:28:06.152Z,12.46
2022-10-31T10:33:08.265Z,12.74
2022-10-31T10:38:08.905Z,13.09
2022-10-31T10:43:09.007Z,13.04
2022-10-31T10:48:09.177Z,13.02
2022-10-31T10:53:08.339Z,12.88
2022-10-31T10:58:09.478Z,12.67
2022-10-31T11:03:10.627Z,12.67
2022-10-31T11:08:11.775Z,13.07
2022-10-31T11:13:12.867Z,13.88
2022-10-31T11:18:14.013Z,13.63
2022-10-31T11:23:15.106Z,13.74
2022-10-31T11:28:17.211Z,13.43
2022-10-31T11:33:17.316Z,13.29
2022-10-31T11:38:17.441Z,13.32
2022-10-31T11:43:16.536Z,13.43
2022-10-31T11:48:17.658Z,13.56
2022-10-31T11:53:18.784Z,13.81
2022-10-31T11:58:20.029Z,13.83
2022-10-31T12:03:21.120Z,14.29
2022-10-31T12:08:22.222Z,14.12
2022-10-31T12:13:23.328Z,14.07
2022-10-31T12:18:24.416Z,14.38
2022-10-31T12:23:25.513Z,14.28
2022-10-31T12:28:27.655Z,14.31
2022-10-31T12:33:27.780Z,14.46
2022-10-31T12:38:27.327Z,14.87
2022-10-31T12:43:27.446Z,14.72
2022-10-31T12:48:27.529Z,14.49
2022-10-31T12:53:27.626Z,14.78
2022-10-31T12:58:26.746Z,14.98
2022-10-31T13:03:28.837Z,15.05
2022-10-31T13:08:27.969Z,15.26
2022-10-31T13:13:30.073Z,15.33
2022-10-31T13:18:30.163Z,15.59
2022-10-31T13:23:49.813Z,15.78
2022-10-31T13:28:29.292Z,15.68
2022-10-31T13:33:31.386Z,15.92
2022-10-31T13:38:30.485Z,16.07
2022-10-31T13:43:31.713Z,16.45
2022-10-31T13:48:33.007Z,16.67
2022-10-31T13:53:34.235Z,16.30
2022-10-31T13:58:35.513Z,15.96
2022-10-31T14:04:03.637Z,15.79
2022-10-31T14:08:37.646Z,15.60
2022-10-31T14:13:37.746Z,15.30
2022-10-31T14:18:37.985Z,15.21
2022-10-31T14:23:39.074Z,15.13
2022-10-31T14:28:39.172Z,15.11
2022-10-31T14:33:38.403Z,15.11
2022-10-31T14:38:39.497Z,14.91
2022-10-31T14:43:40.938Z,14.84
2022-10-31T14:48:43.026Z,14.68
2022-10-31T14:53:43.150Z,14.47
2022-10-31T14:58:42.398Z,14.34
2022-10-31T15:03:57.447Z,14.28
2022-10-31T15:08:44.634Z,14.14
2022-10-31T15:13:46.774Z,13.96
2022-10-31T15:18:48.031Z,13.84
2022-10-31T15:23:47.357Z,13.51
2022-10-31T15:28:48.579Z,13.46
2022-10-31T15:33:49.899Z,13.33
2022-10-31T15:38:51.192Z,13.15
2022-10-31T15:43:52.447Z,13.04
2022-10-31T15:48:54.558Z,13.00
2022-10-31T15:53:53.764Z,12.81
2022-10-31T15:58:55.027Z,12.64
2022-10-31T16:03:56.318Z,12.63
2022-10-31T16:08:56.510Z,12.41
2022-10-31T16:13:57.815Z,12.27
2022-10-31T16:18:59.949Z,12.21
2022-10-31T16:23:59.236Z,11.97
2022-10-31T16:29:08.493Z,11.83
2022-10-31T16:34:01.310Z,11.80
2022-10-31T16:39:02.600Z,11.74
2022-10-31T16:44:03.704Z,11.49
2022-10-31T16:49:06.942Z,11.25
2022-10-31T16:54:07.080Z,11.24
2022-10-31T16:59:09.821Z,11.21
2022-10-31T17:04:08.099Z,11.21
2022-10-31T17:09:07.295Z,10.91
2022-10-31T17:14:09.418Z,10.91
2022-10-31T17:19:08.641Z,10.80
2022-10-31T17:24:09.792Z,10.73
2022-10-31T17:29:10.985Z,10.83
2022-10-31T17:34:12.188Z,10.66
2022-10-31T17:39:13.570Z,10.68
2022-10-31T17:44:14.854Z,10.63
2022-10-31T17:49:16.311Z,10.73
2022-10-31T17:54:15.640Z,10.76
2022-10-31T17:59:17.799Z,10.65
2022-10-31T18:04:17.373Z,10.71
2022-10-31T18:09:16.767Z,10.78
2022-10-31T18:14:18.049Z,10.78
2022-10-31T18:19:19.261Z,11.16
2022-10-31T18:24:20.507Z,11.43
2022-10-31T18:29:21.919Z,11.21
2022-10-31T18:34:22.032Z,11.06
2022-10-31T18:39:21.526Z,10.88
2022-10-31T18:44:20.726Z,10.74
2022-10-31T18:49:23.911Z,10.66
2022-10-31T18:54:23.348Z,10.63
2022-10-31T18:59:22.706Z,10.81
2022-10-31T19:04:22.879Z,10.81
2022-10-31T19:09:24.224Z,10.84
2022-10-31T19:14:25.662Z,10.81
2022-10-31T19:19:26.880Z,10.77
2022-10-31T19:24:28.157Z,10.76
2022-10-31T19:29:29.486Z,10.73
2022-10-31T19:34:30.580Z,10.63
2022-10-31T19:39:32.491Z,10.65
2022-10-31T19:44:31.627Z,10.60
2022-10-31T19:49:32.958Z,10.70
2022-10-31T19:54:34.389Z,10.63
2022-10-31T19:59:39.376Z,11.02
2022-10-31T20:04:37.040Z,12.05
2022-10-31T20:09:36.935Z,13.07
2022-10-31T20:14:36.534Z,13.06
2022-10-31T20:19:36.941Z,13.29
2022-10-31T20:24:36.311Z,13.12
2022-10-31T20:29:38.428Z,13.18
2022-10-31T20:34:37.843Z,12.67
2022-10-31T20:39:39.227Z,12.26
2022-10-31T20:44:41.441Z,11.89
2022-10-31T20:49:40.910Z,11.67
2022-10-31T20:54:40.253Z,11.44
2022-10-31T20:59:42.585Z,11.32
2022-10-31T21:04:43.897Z,11.43
2022-10-31T21:09:43.024Z,11.47
2022-10-31T21:14:45.168Z,11.53
2022-10-31T21:19:44.464Z,11.47
2022-10-31T21:24:45.577Z,11.41
2022-10-31T21:29:46.787Z,11.43
2022-10-31T21:34:47.905Z,11.54
2022-10-31T21:39:51.011Z,11.59
2022-10-31T21:44:51.515Z,11.64
2022-10-31T21:49:50.633Z,11.70
2022-10-31T21:54:52.813Z,11.57
2022-10-31T21:59:51.963Z,11.64
2022-10-31T22:04:53.344Z,11.67
2022-10-31T22:09:54.445Z,11.74
2022-10-31T22:14:54.538Z,11.64
2022-10-31T22:19:55.915Z,11.74
2022-10-31T22:24:57.234Z,11.74
2022-10-31T22:29:59.339Z,11.75
2022-10-31T22:34:59.736Z,11.74
2022-10-31T22:39:58.852Z,11.62
2022-10-31T22:44:59.944Z,11.68
2022-10-31T22:50:02.079Z,11.36
2022-10-31T22:55:01.324Z,11.09
2022-10-31T23:00:03.413Z,11.11
2022-10-31T23:05:02.515Z,11.06
2022-10-31T23:10:02.615Z,10.96
2022-10-31T23:15:03.835Z,10.96
2022-10-31T23:20:05.945Z,10.89
2022-10-31T23:25:06.037Z,10.84
2022-10-31T23:30:05.308Z,10.66
2022-10-31T23:35:06.529Z,10.52
2022-10-31T23:40:07.668Z,10.42
2022-10-31T23:45:09.775Z,10.17
2022-10-31T23:50:08.873Z,10.22
2022-10-31T23:55:10.053Z,10.10
